createdAt,value
2023-02-21T00:03:49.839Z,78.5
2023-02-21T00:08:57.778Z,78.5
2023-02-21T00:14:05.700Z,78.5
2023-02-21T00:19:13.653Z,78.5
2023-02-21T00:24:21.599Z,78.5
2023-02-21T00:29:29.523Z,78.5
2023-02-21T00:34:37.476Z,78.5
2023-02-21T00:39:43.564Z,78.5
2023-02-21T00:44:51.459Z,78.5
2023-02-21T00:49:59.392Z,78.5
2023-02-21T00:55:07.346Z,78.5
2023-02-21T01:00:15.264Z,78.5
2023-02-21T01:05:23.210Z,78.5
2023-02-21T01:10:31.187Z,78.5
2023-02-21T01:15:39.133Z,78.5
2023-02-21T01:20:47.052Z,78.5
2023-02-21T01:25:55.011Z,78.5
2023-02-21T01:31:03.003Z,78.5
2023-02-21T01:36:10.858Z,78.5
2023-02-21T01:41:18.842Z,78.5
2023-02-21T01:46:26.799Z,78.5
2023-02-21T01:51:34.710Z,78.5
2023-02-21T01:56:42.862Z,78.5
2023-02-21T02:01:50.621Z,78.5
2023-02-21T02:06:58.526Z,78.5
2023-02-21T02:12:06.542Z,78.5
2023-02-21T02:17:16.536Z,78.5
2023-02-21T02:22:22.365Z,78.5
2023-02-21T02:27:30.310Z,78.5
2023-02-21T02:32:38.254Z,78.5
2023-02-21T02:37:46.192Z,78.5
2023-02-21T02:42:54.528Z,78.5
2023-02-21T02:48:02.062Z,78.5
2023-02-21T02:53:10.001Z,78.5
2023-02-21T02:58:17.997Z,78.5
2023-02-21T03:03:25.937Z,78.5
2023-02-21T03:08:33.851Z,78.5
2023-02-21T03:13:41.798Z,78.5
2023-02-21T03:18:49.762Z,78.5
2023-02-21T03:23:57.670Z,78.5
2023-02-21T03:29:05.636Z,78.5
2023-02-21T03:34:13.568Z,78.5
2023-02-21T03:39:21.502Z,78.5
2023-02-21T03:44:29.462Z,78.5
2023-02-21T03:49:37.391Z,78.5
2023-02-21T03:54:43.531Z,78.5
2023-02-21T03:59:49.553Z,78.5
2023-02-21T04:04:55.607Z,78.5
2023-02-21T04:10:01.669Z,78.5
2023-02-21T04:15:07.753Z,78.5
2023-02-21T04:20:13.806Z,78.5
2023-02-21T04:25:19.871Z,78.5
2023-02-21T04:30:26.015Z,78.5
2023-02-21T04:35:32.014Z,78.5
2023-02-21T04:40:38.061Z,78.5
2023-02-21T04:45:44.250Z,78.5
2023-02-21T04:50:50.199Z,78.5
2023-02-21T04:55:56.253Z,78.5
2023-02-21T05:01:02.513Z,78.5
2023-02-21T05:06:08.412Z,78.5
2023-02-21T05:11:14.902Z,78.5
2023-02-21T05:16:20.647Z,78.5
2023-02-21T05:21:26.609Z,78.5
2023-02-21T05:26:32.759Z,78.5
2023-02-21T05:31:38.884Z,78.5
2023-02-21T05:36:46.704Z,78.5
2023-02-21T05:41:54.649Z,78.5
2023-02-21T05:47:02.604Z,78.5
2023-02-21T05:52:10.507Z,78.5
2023-02-21T05:57:18.450Z,78.5
2023-02-21T06:02:26.457Z,78.5
2023-02-21T06:07:34.340Z,78.5
2023-02-21T06:12:42.291Z,78.5
2023-02-21T06:17:50.234Z,78.5
2023-02-21T06:22:58.174Z,78.5
2023-02-21T06:28:06.113Z,78.5
2023-02-21T06:33:14.086Z,78.5
2023-02-21T06:38:22.045Z,78.5
2023-02-21T06:43:29.946Z,78.5
2023-02-21T06:48:37.934Z,78.5
2023-02-21T06:53:45.839Z,78.5
2023-02-21T06:58:53.777Z,78.5
2023-02-21T07:04:01.758Z,78.5
2023-02-21T07:09:09.661Z,78.5
2023-02-21T07:14:17.620Z,78.5
2023-02-21T07:19:25.564Z,78.5
2023-02-21T07:24:35.713Z,78.5
2023-02-21T07:29:41.448Z,78.5
2023-02-21T07:34:49.404Z,78.5
2023-02-21T07:39:57.313Z,78.5
2023-02-21T07:45:05.275Z,78.5
2023-02-21T07:55:21.180Z,78.5
2023-02-21T08:00:29.115Z,78.5
2023-02-21T08:05:37.033Z,78.5
2023-02-21T08:10:45.025Z,78.5
2023-02-21T08:15:52.990Z,78.5
2023-02-21T08:21:00.871Z,78.5
2023-02-21T08:26:08.843Z,78.5
2023-02-21T08:31:17.119Z,78.5
2023-02-21T08:36:24.697Z,78.5
2023-02-21T08:41:32.968Z,78.5
2023-02-21T08:46:40.686Z,78.5
2023-02-21T08:51:48.524Z,78.5
2023-02-21T08:56:56.493Z,79
2023-02-21T09:02:04.437Z,79
2023-02-21T09:07:12.368Z,79
2023-02-21T09:12:20.347Z,79.5
2023-02-21T09:17:28.262Z,79.5
2023-02-21T09:22:36.198Z,79.5
2023-02-21T09:27:44.169Z,79.5
2023-02-21T09:32:52.077Z,79.5
2023-02-21T09:38:00.016Z,79.5
2023-02-21T09:43:07.998Z,79.5
2023-02-21T09:48:14.031Z,79.5
2023-02-21T09:53:20.092Z,79.5
2023-02-21T09:58:26.181Z,79.5
2023-02-21T10:03:32.230Z,79.5
2023-02-21T10:08:40.160Z,79.5
2023-02-21T10:13:46.253Z,80
2023-02-21T10:18:52.302Z,80
2023-02-21T10:23:58.382Z,80
2023-02-21T10:29:04.478Z,80
2023-02-21T10:34:10.499Z,80
2023-02-21T10:39:16.584Z,80
2023-02-21T10:44:22.791Z,80
2023-02-21T10:49:28.705Z,80
2023-02-21T10:54:35.453Z,80
2023-02-21T10:59:40.867Z,80
2023-02-21T11:04:46.932Z,80
2023-02-21T11:09:52.974Z,80.5
2023-02-21T11:14:59.080Z,80.5
2023-02-21T11:20:06.976Z,80.5
2023-02-21T11:25:13.052Z,80.5
2023-02-21T11:30:19.191Z,80.5
2023-02-21T11:35:25.258Z,81
2023-02-21T11:40:31.264Z,81
2023-02-21T11:45:37.343Z,81
2023-02-21T11:55:51.343Z,81.5
2023-02-21T12:00:57.421Z,81.5
2023-02-21T12:06:03.589Z,81.5
2023-02-21T12:11:09.541Z,81.5
2023-02-21T12:16:15.658Z,82
2023-02-21T12:21:21.689Z,82
2023-02-21T12:26:27.738Z,82
2023-02-21T12:31:35.887Z,82.5
2023-02-21T12:36:41.732Z,82.5
2023-02-21T12:41:47.817Z,82.5
2023-02-21T12:46:55.759Z,83
2023-02-21T12:52:03.707Z,83
2023-02-21T12:57:11.636Z,83
2023-02-21T13:02:17.728Z,83.5
2023-02-21T13:07:23.769Z,83.5
2023-02-21T13:12:29.836Z,84
2023-02-21T13:17:35.920Z,84
2023-02-21T13:22:41.948Z,84
2023-02-21T13:27:48.014Z,84
2023-02-21T13:32:54.151Z,84
2023-02-21T13:38:00.157Z,84
2023-02-21T13:43:08.106Z,84
2023-02-21T13:48:14.208Z,84.5
2023-02-21T13:53:20.236Z,84.5
2023-02-21T13:58:26.300Z,84.5
2023-02-21T14:03:32.387Z,84.5
2023-02-21T14:08:38.411Z,84.5
2023-02-21T14:13:44.498Z,84.5
2023-02-21T14:18:50.647Z,84.5
2023-02-21T14:23:56.628Z,84.5
2023-02-21T14:29:02.681Z,84.5
2023-02-21T14:34:08.782Z,84.5
2023-02-21T14:39:14.826Z,84.5
2023-02-21T14:44:20.863Z,84.5
2023-02-21T14:49:26.963Z,84.5
2023-02-21T14:54:34.868Z,84
2023-02-21T14:59:40.932Z,84
2023-02-21T15:04:47.037Z,83.5
2023-02-21T15:09:53.088Z,83.5
2023-02-21T15:14:59.140Z,83
2023-02-21T15:20:05.283Z,83
2023-02-21T15:25:11.268Z,82.5
2023-02-21T15:30:17.429Z,83
2023-02-21T15:35:23.423Z,83
2023-02-21T15:40:29.488Z,82.5
2023-02-21T15:45:35.539Z,82.5
2023-02-21T15:50:41.615Z,82.5
2023-02-21T15:55:47.665Z,82
2023-02-21T16:00:53.814Z,82
2023-02-21T16:06:01.677Z,82
2023-02-21T16:11:09.588Z,81.5
2023-02-21T16:16:17.531Z,81.5
2023-02-21T16:21:25.521Z,81.5
2023-02-21T16:26:33.438Z,81
2023-02-21T16:31:41.518Z,81
2023-02-21T16:36:49.347Z,80.5
2023-02-21T16:41:57.247Z,80.5
2023-02-21T16:47:05.182Z,80.5
2023-02-21T16:52:13.155Z,80.5
2023-02-21T16:57:21.059Z,80
2023-02-21T17:02:29.036Z,80
2023-02-21T17:07:36.991Z,80
2023-02-21T17:12:44.886Z,80
2023-02-21T17:17:53.993Z,80
2023-02-21T17:23:00.798Z,80
2023-02-21T17:28:08.681Z,80
2023-02-21T17:33:16.632Z,79.5
2023-02-21T17:38:24.613Z,79.5
2023-02-21T17:43:32.561Z,79.5
2023-02-21T17:48:38.587Z,79
2023-02-21T17:53:46.547Z,79
2023-02-21T17:58:54.457Z,79
2023-02-21T18:04:02.398Z,79
2023-02-21T18:09:10.344Z,79
2023-02-21T18:14:18.273Z,79
2023-02-21T18:19:26.217Z,78.5
2023-02-21T18:24:34.183Z,78.5
2023-02-21T18:29:42.147Z,78
2023-02-21T18:34:50.040Z,78
2023-02-21T18:39:58.004Z,78
2023-02-21T18:45:05.927Z,77.5
2023-02-21T18:50:13.864Z,77.5
2023-02-21T18:55:21.848Z,77.5
2023-02-21T19:00:29.773Z,77.5
2023-02-21T19:05:37.691Z,77.5
2023-02-21T19:10:45.647Z,77
2023-02-21T19:15:53.596Z,77
2023-02-21T19:21:01.557Z,77
2023-02-21T19:26:09.483Z,76.5
2023-02-21T19:36:25.363Z,76.5
2023-02-21T19:41:33.319Z,76.5
2023-02-21T19:46:39.340Z,76.5
2023-02-21T19:51:45.418Z,76.5
2023-02-21T19:56:51.532Z,76.5
2023-02-21T20:01:57.543Z,76.5
2023-02-21T20:07:03.615Z,76.5
2023-02-21T20:12:09.703Z,76
2023-02-21T20:17:15.732Z,76
2023-02-21T20:22:21.815Z,76
2023-02-21T20:27:27.898Z,76
2023-02-21T20:32:34.120Z,76
2023-02-21T20:37:40.074Z,76
2023-02-21T20:42:46.094Z,76
2023-02-21T20:47:52.149Z,76
2023-02-21T20:53:00.080Z,76
2023-02-21T20:58:06.172Z,76
2023-02-21T21:03:12.220Z,76
2023-02-21T21:08:18.297Z,76
2023-02-21T21:13:24.383Z,76
2023-02-21T21:18:30.416Z,76
2023-02-21T21:23:38.362Z,76
2023-02-21T21:28:46.325Z,76
2023-02-21T21:33:54.260Z,76
2023-02-21T21:39:02.196Z,76
2023-02-21T21:44:10.211Z,76
2023-02-21T21:49:18.118Z,76
2023-02-21T21:54:26.010Z,76
2023-02-21T21:59:34.257Z,76
2023-02-21T22:04:41.968Z,76
2023-02-21T22:09:49.824Z,76
2023-02-21T22:14:57.802Z,76.5
2023-02-21T22:20:05.720Z,76.5
2023-02-21T22:25:13.663Z,76.5
2023-02-21T22:30:21.699Z,76.5
2023-02-21T22:35:29.554Z,76.5
2023-02-21T22:40:37.544Z,76.5
2023-02-21T22:45:45.457Z,76.5
2023-02-21T22:50:53.378Z,76.5
2023-02-21T22:56:01.317Z,76.5
2023-02-21T23:01:09.277Z,76.5
2023-02-21T23:06:17.203Z,76.5
2023-02-21T23:11:25.149Z,76.5
2023-02-21T23:16:33.163Z,76.5
2023-02-21T23:21:41.060Z,76.5
2023-02-21T23:26:49.018Z,76.5
2023-02-21T23:31:57.125Z,76.5
2023-02-21T23:37:04.876Z,77
2023-02-21T23:42:12.811Z,76.5
2023-02-21T23:47:20.767Z,76.5
2023-02-21T23:52:28.692Z,77
2023-02-21T23:57:36.666Z,77
